Time;durP1;ratioP1;P1;durP2;ratioP2;P2;SDS_P1;SDS_P2;PMS_P1;PMS_P2;Temp;Humidity;BMP_temperature;BMP_pressure;BME280_temperature;BME280_humidity;BME280_pressure;Samples;Min_cycle;Max_cycle;Signal;HPM_P1;HPM_P2
2022/06/12 00:00:42;;;;;;;11.13;9.07;;;;;;;;;;4915567;29;20075;-79
2022/06/12 00:03:09;;;;;;;10.18;8.35;;;;;;;;;;4913942;29;20036;-84
2022/06/12 00:05:37;;;;;;;12.63;8.95;;;;;;;;;;4912227;29;20051;-81
2022/06/12 00:08:05;;;;;;;13.63;9.13;;;;;;;;;;4914386;29;20039;-83
2022/06/12 00:10:31;;;;;;;14.60;9.05;;;;;;;;;;4912502;29;20059;-81
2022/06/12 00:12:57;;;;;;;11.25;8.65;;;;;;;;;;4911238;29;20490;-79
2022/06/12 00:15:26;;;;;;;12.48;8.80;;;;;;;;;;4913294;29;20543;-84
2022/06/12 00:17:52;;;;;;;9.82;8.82;;;;;;;;;;4914229;29;20024;-83
2022/06/12 00:20:19;;;;;;;10.63;8.80;;;;;;;;;;4916302;29;20035;-80
2022/06/12 00:22:46;;;;;;;9.88;8.88;;;;;;;;;;4967985;28;20034;-83
2022/06/12 00:25:14;;;;;;;11.60;8.98;;;;;;;;;;5011169;28;20149;-80
2022/06/12 00:27:40;;;;;;;10.40;8.57;;;;;;;;;;4995225;28;20029;-83
2022/06/12 00:30:08;;;;;;;9.43;8.45;;;;;;;;;;4995698;28;20184;-83
2022/06/12 00:32:35;;;;;;;12.13;8.65;;;;;;;;;;4995975;28;20034;-78
2022/06/12 00:35:01;;;;;;;10.98;8.70;;;;;;;;;;4995561;28;20029;-81
2022/06/12 00:37:28;;;;;;;10.65;7.78;;;;;;;;;;4992889;28;20141;-78
2022/06/12 00:39:55;;;;;;;10.45;8.20;;;;;;;;;;5011257;28;20026;-79
2022/06/12 00:42:33;;;;;;;9.68;7.93;;;;;;;;;;4995637;28;20372;-79
2022/06/12 00:45:03;;;;;;;11.60;8.63;;;;;;;;;;5011331;28;20565;-83
2022/06/12 00:47:29;;;;;;;9.27;8.35;;;;;;;;;;5012306;28;20026;-79
2022/06/12 00:50:05;;;;;;;9.65;7.97;;;;;;;;;;5015249;28;20030;-80
2022/06/12 00:52:42;;;;;;;11.40;8.52;;;;;;;;;;5008370;28;20104;-81
2022/06/12 00:55:24;;;;;;;11.27;8.05;;;;;;;;;;5012140;28;20030;-79
2022/06/12 00:57:52;;;;;;;10.88;8.40;;;;;;;;;;5013122;28;20037;-79
2022/06/12 01:00:18;;;;;;;9.73;8.70;;;;;;;;;;4994337;28;20376;-80
2022/06/12 01:02:44;;;;;;;13.15;8.00;;;;;;;;;;5012832;28;20026;-79
2022/06/12 01:07:59;;;;;;;11.45;8.23;;;;;;;;;;5016392;28;20052;-79
2022/06/12 01:10:28;;;;;;;9.98;8.07;;;;;;;;;;5017564;28;20034;-79
2022/06/12 01:13:02;;;;;;;11.20;8.13;;;;;;;;;;5018806;28;20053;-78
2022/06/12 01:15:35;;;;;;;9.57;7.65;;;;;;;;;;5020341;28;20029;-77
2022/06/12 01:18:02;;;;;;;11.10;8.80;;;;;;;;;;5014456;28;20034;-77
2022/06/12 01:20:32;;;;;;;12.05;8.55;;;;;;;;;;5000081;28;20092;-79
2022/06/12 01:22:58;;;;;;;12.80;8.30;;;;;;;;;;5004212;28;20042;-79
2022/06/12 01:25:56;;;;;;;10.45;8.57;;;;;;;;;;5000605;28;20026;-79
2022/06/12 01:28:44;;;;;;;10.35;8.32;;;;;;;;;;4934136;29;20163;-76
2022/06/12 01:31:29;;;;;;;11.57;8.40;;;;;;;;;;4922051;29;20094;-79
2022/06/12 01:34:02;;;;;;;13.75;9.18;;;;;;;;;;4942437;29;20046;-79
2022/06/12 01:36:47;;;;;;;10.38;9.27;;;;;;;;;;4943991;29;20529;-79
2022/06/12 01:39:23;;;;;;;9.45;8.35;;;;;;;;;;4934191;29;20131;-77
2022/06/12 01:41:58;;;;;;;11.43;8.75;;;;;;;;;;4922315;29;20190;-80
2022/06/12 01:44:44;;;;;;;11.43;8.85;;;;;;;;;;4926515;29;20032;-79
2022/06/12 01:47:14;;;;;;;11.80;8.80;;;;;;;;;;4940598;29;20042;-78
2022/06/12 01:49:40;;;;;;;10.75;8.25;;;;;;;;;;4926579;29;20471;-78
2022/06/12 01:52:35;;;;;;;11.48;9.10;;;;;;;;;;4941433;29;20052;-77
2022/06/12 01:55:20;;;;;;;9.63;8.63;;;;;;;;;;4885932;29;20096;-78
2022/06/12 01:58:14;;;;;;;11.63;8.90;;;;;;;;;;4886466;29;20048;-78
2022/06/12 02:00:44;;;;;;;13.68;8.65;;;;;;;;;;4855906;29;20033;-77
2022/06/12 02:03:15;;;;;;;11.20;8.88;;;;;;;;;;4864045;29;20056;-78
2022/06/12 02:06:12;;;;;;;14.73;8.82;;;;;;;;;;4910190;29;20048;-79
2022/06/12 02:08:56;;;;;;;11.25;8.77;;;;;;;;;;4899098;29;20053;-79
2022/06/12 02:14:18;;;;;;;11.82;8.48;;;;;;;;;;4921261;29;20046;-78
2022/06/12 02:16:49;;;;;;;9.77;8.65;;;;;;;;;;4921028;29;20032;-77
2022/06/12 02:19:17;;;;;;;9.73;8.73;;;;;;;;;;4888345;29;20559;-77
2022/06/12 02:21:48;;;;;;;9.82;8.90;;;;;;;;;;4904887;29;20055;-76
2022/06/12 02:24:37;;;;;;;10.05;8.65;;;;;;;;;;4909184;29;20051;-77
2022/06/12 02:27:11;;;;;;;10.35;8.50;;;;;;;;;;4905446;29;20079;-77
2022/06/12 02:29:42;;;;;;;12.00;8.88;;;;;;;;;;4912221;29;20398;-77
2022/06/12 02:32:35;;;;;;;11.02;9.13;;;;;;;;;;4907807;29;20059;-78
2022/06/12 02:35:10;;;;;;;9.60;8.60;;;;;;;;;;4857299;29;20049;-78
2022/06/12 02:37:42;;;;;;;10.18;9.18;;;;;;;;;;4928620;29;20047;-77
2022/06/12 02:40:29;;;;;;;11.77;8.82;;;;;;;;;;4966124;29;20039;-77
2022/06/12 02:42:57;;;;;;;15.75;9.30;;;;;;;;;;4963425;29;20093;-77
2022/06/12 02:45:29;;;;;;;12.75;9.45;;;;;;;;;;4965166;29;20055;-77
2022/06/12 02:47:57;;;;;;;10.02;8.90;;;;;;;;;;4963551;29;20031;-78
2022/06/12 02:50:25;;;;;;;9.65;8.50;;;;;;;;;;4951113;29;20051;-78
2022/06/12 02:52:57;;;;;;;9.88;8.88;;;;;;;;;;4966425;28;20031;-77
2022/06/12 02:55:38;;;;;;;9.77;8.65;;;;;;;;;;4968052;29;20159;-78
2022/06/12 02:58:23;;;;;;;12.65;9.30;;;;;;;;;;4941498;29;20024;-77
2022/06/12 03:00:52;;;;;;;10.43;8.48;;;;;;;;;;4965186;28;20492;-77
2022/06/12 03:03:45;;;;;;;15.10;8.48;;;;;;;;;;4962507;29;20042;-77
2022/06/12 03:06:17;;;;;;;10.65;8.75;;;;;;;;;;4959673;29;20043;-78
2022/06/12 03:08:47;;;;;;;11.50;9.07;;;;;;;;;;4968977;29;20031;-78
2022/06/12 03:11:14;;;;;;;13.15;9.02;;;;;;;;;;4973148;28;20053;-77
2022/06/12 03:13:41;;;;;;;16.77;8.98;;;;;;;;;;5005012;28;20022;-76
2022/06/12 03:16:10;;;;;;;12.55;8.95;;;;;;;;;;5024264;28;20026;-77
2022/06/12 03:18:41;;;;;;;11.45;8.88;;;;;;;;;;5025557;28;20022;-78
2022/06/12 03:21:17;;;;;;;11.82;8.70;;;;;;;;;;5008825;28;20037;-77
2022/06/12 03:23:43;;;;;;;9.98;8.57;;;;;;;;;;5022934;28;20045;-77
2022/06/12 03:26:14;;;;;;;10.85;8.68;;;;;;;;;;5023198;28;20114;-77
2022/06/12 03:29:02;;;;;;;10.40;8.98;;;;;;;;;;5006759;28;20036;-77
2022/06/12 03:31:49;;;;;;;11.70;8.75;;;;;;;;;;5006632;28;20088;-79
2022/06/12 03:34:35;;;;;;;12.88;8.93;;;;;;;;;;5014400;28;20026;-76
2022/06/12 03:37:14;;;;;;;9.70;8.55;;;;;;;;;;5005796;28;20120;-77
2022/06/12 03:39:45;;;;;;;11.82;7.93;;;;;;;;;;5004835;28;20037;-79
2022/06/12 03:42:36;;;;;;;11.65;8.20;;;;;;;;;;5007445;28;20022;-77
2022/06/12 03:45:06;;;;;;;10.68;8.40;;;;;;;;;;4906143;29;20052;-77
2022/06/12 03:47:33;;;;;;;9.07;8.00;;;;;;;;;;4922902;29;20099;-77
2022/06/12 03:50:15;;;;;;;10.85;8.25;;;;;;;;;;4913123;29;20091;-77
2022/06/12 03:52:50;;;;;;;9.93;8.23;;;;;;;;;;4922430;29;20056;-78
2022/06/12 03:58:24;;;;;;;9.40;8.05;;;;;;;;;;4912499;29;20117;-76
2022/06/12 04:00:52;;;;;;;14.52;11.63;;;;;;;;;;4921922;29;20039;-77
2022/06/12 04:03:31;;;;;;;12.60;8.40;;;;;;;;;;4921230;29;20036;-77
2022/06/12 04:06:00;;;;;;;10.35;8.90;;;;;;;;;;4921294;29;20032;-78
2022/06/12 04:09:00;;;;;;;14.02;8.27;;;;;;;;;;4923628;29;20044;-77
2022/06/12 04:11:27;;;;;;;11.20;8.18;;;;;;;;;;4920297;29;20460;-78
2022/06/12 04:13:54;;;;;;;10.98;8.85;;;;;;;;;;4899510;29;20109;-78
2022/06/12 04:16:55;;;;;;;10.90;8.90;;;;;;;;;;4921287;29;20054;-77
2022/06/12 04:19:24;;;;;;;10.55;8.45;;;;;;;;;;4880618;29;20041;-79
2022/06/12 04:22:15;;;;;;;8.90;7.90;;;;;;;;;;4925851;28;20062;-78
2022/06/12 04:24:49;;;;;;;10.02;8.50;;;;;;;;;;4967759;28;20432;-78
2022/06/12 04:27:30;;;;;;;9.00;8.07;;;;;;;;;;4962407;28;20138;-78
2022/06/12 04:30:20;;;;;;;9.23;7.78;;;;;;;;;;4980943;28;20037;-79
2022/06/12 04:33:20;;;;;;;9.40;7.68;;;;;;;;;;4985599;28;20452;-80
2022/06/12 04:36:16;;;;;;;9.88;7.50;;;;;;;;;;4888343;29;20033;-79
2022/06/12 04:38:42;;;;;;;8.77;7.80;;;;;;;;;;4867879;29;20085;-77
2022/06/12 04:41:30;;;;;;;16.65;9.73;;;;;;;;;;4867723;29;20415;-79
2022/06/12 04:44:01;;;;;;;14.60;7.88;;;;;;;;;;4884860;29;20217;-80
2022/06/12 04:46:27;;;;;;;35.20;12.35;;;;;;;;;;4887061;29;20044;-80
2022/06/12 04:48:56;;;;;;;9.60;8.10;;;;;;;;;;4885606;29;20033;-80
2022/06/12 04:51:22;;;;;;;9.90;7.90;;;;;;;;;;4880272;29;20049;-80
2022/06/12 04:53:58;;;;;;;10.93;7.95;;;;;;;;;;4880235;29;20055;-80
2022/06/12 04:56:25;;;;;;;15.65;8.18;;;;;;;;;;4867930;29;20475;-78
2022/06/12 04:58:52;;;;;;;12.77;8.27;;;;;;;;;;4870768;29;20100;-81
2022/06/12 05:01:19;;;;;;;18.00;8.70;;;;;;;;;;4876415;29;20041;-81
2022/06/12 05:03:45;;;;;;;17.38;8.40;;;;;;;;;;4874681;29;20064;-83
2022/06/12 05:06:13;;;;;;;9.73;6.55;;;;;;;;;;4876631;29;20088;-84
2022/06/12 05:08:39;;;;;;;10.07;6.72;;;;;;;;;;4884812;29;20041;-78
2022/06/12 05:11:06;;;;;;;11.98;7.70;;;;;;;;;;4880842;28;20056;-79
2022/06/12 05:13:32;;;;;;;10.65;7.10;;;;;;;;;;4971572;28;20105;-83
2022/06/12 05:15:59;;;;;;;9.85;6.88;;;;;;;;;;4969794;28;20030;-81
2022/06/12 05:18:25;;;;;;;9.82;6.10;;;;;;;;;;4955090;28;20035;-79
2022/06/12 05:20:51;;;;;;;7.22;6.35;;;;;;;;;;4954878;28;20081;-81
2022/06/12 05:23:18;;;;;;;8.35;6.30;;;;;;;;;;4954558;28;20046;-82
2022/06/12 05:25:44;;;;;;;8.85;6.13;;;;;;;;;;4969463;28;20034;-84
2022/06/12 05:28:12;;;;;;;9.45;6.15;;;;;;;;;;5012236;28;20033;-80
2022/06/12 05:30:38;;;;;;;10.15;6.13;;;;;;;;;;5011973;28;20031;-83
2022/06/12 05:33:05;;;;;;;8.35;5.97;;;;;;;;;;5011421;28;20480;-82
2022/06/12 05:35:32;;;;;;;13.80;6.72;;;;;;;;;;5012576;28;20021;-82
2022/06/12 05:38:00;;;;;;;7.65;5.70;;;;;;;;;;5007593;28;20046;-88
2022/06/12 05:40:27;;;;;;;9.23;5.82;;;;;;;;;;4992401;28;20026;-76
2022/06/12 05:42:53;;;;;;;7.93;5.72;;;;;;;;;;4989689;28;20477;-79
2022/06/12 05:45:21;;;;;;;8.18;5.70;;;;;;;;;;5011022;28;20033;-77
2022/06/12 05:47:59;;;;;;;8.77;5.60;;;;;;;;;;4992717;28;20034;-76
2022/06/12 05:50:27;;;;;;;7.75;5.35;;;;;;;;;;4993126;28;20027;-74
2022/06/12 05:52:54;;;;;;;9.40;5.53;;;;;;;;;;5012584;28;20357;-81
2022/06/12 05:55:20;;;;;;;8.88;5.30;;;;;;;;;;5000679;28;20030;-72
2022/06/12 05:57:46;;;;;;;6.97;5.15;;;;;;;;;;5014868;28;20029;-77
2022/06/12 06:00:16;;;;;;;11.23;5.45;;;;;;;;;;5014899;28;20388;-75
2022/06/12 06:02:43;;;;;;;7.65;5.13;;;;;;;;;;4997591;28;20435;-77
2022/06/12 06:05:09;;;;;;;7.40;5.50;;;;;;;;;;5015326;28;20530;-80
2022/06/12 06:07:35;;;;;;;10.02;5.22;;;;;;;;;;5014916;28;20101;-84
2022/06/12 06:10:03;;;;;;;7.88;5.28;;;;;;;;;;5000269;28;20022;-88
2022/06/12 06:12:29;;;;;;;6.25;4.97;;;;;;;;;;4995869;28;20037;-95
2022/06/12 06:14:55;;;;;;;7.53;5.20;;;;;;;;;;4997068;28;20026;-72
2022/06/12 06:17:21;;;;;;;9.65;4.15;;;;;;;;;;5015565;28;20041;-79
2022/06/12 06:19:47;;;;;;;7.63;4.20;;;;;;;;;;5012104;28;20022;-74
2022/06/12 06:22:16;;;;;;;5.70;4.15;;;;;;;;;;5014277;28;20489;-75
2022/06/12 06:24:43;;;;;;;6.55;4.25;;;;;;;;;;5013387;28;20080;-76
2022/06/12 06:27:10;;;;;;;6.63;3.92;;;;;;;;;;5015786;28;20030;-77
2022/06/12 06:29:36;;;;;;;5.78;3.80;;;;;;;;;;4995437;28;20033;-80
2022/06/12 06:32:03;;;;;;;6.80;4.35;;;;;;;;;;4996577;28;20554;-72
2022/06/12 06:34:29;;;;;;;10.30;3.90;;;;;;;;;;5012907;28;20026;-72
2022/06/12 06:36:55;;;;;;;8.20;3.70;;;;;;;;;;5014340;28;20038;-74
2022/06/12 06:39:21;;;;;;;7.30;3.90;;;;;;;;;;5012313;28;20064;-79
2022/06/12 06:41:47;;;;;;;5.30;3.90;;;;;;;;;;5013382;28;20033;-76
2022/06/12 06:46:58;;;;;;;5.57;3.75;;;;;;;;;;5007463;28;20060;-77
2022/06/12 06:49:24;;;;;;;5.10;3.65;;;;;;;;;;4997249;28;20037;-76
2022/06/12 06:51:50;;;;;;;4.97;3.42;;;;;;;;;;4996598;28;20049;-79
2022/06/12 06:54:17;;;;;;;6.55;3.72;;;;;;;;;;5014142;28;20487;-75
2022/06/12 06:56:44;;;;;;;7.18;3.65;;;;;;;;;;5014149;28;20025;-75
2022/06/12 06:59:10;;;;;;;6.85;3.65;;;;;;;;;;5011569;28;20108;-76
2022/06/12 07:01:36;;;;;;;4.90;3.30;;;;;;;;;;5013919;28;20080;-77
2022/06/12 07:04:03;;;;;;;4.80;3.50;;;;;;;;;;5010104;28;20442;-81
2022/06/12 07:06:29;;;;;;;4.07;3.30;;;;;;;;;;5008555;28;20026;-78
2022/06/12 07:08:56;;;;;;;6.03;3.50;;;;;;;;;;5013578;28;20050;-78
2022/06/12 07:11:26;;;;;;;7.57;3.33;;;;;;;;;;4996229;28;20037;-73
2022/06/12 07:13:53;;;;;;;7.00;3.40;;;;;;;;;;5014097;28;20021;-74
2022/06/12 07:16:20;;;;;;;5.70;3.47;;;;;;;;;;5013650;28;20076;-74
2022/06/12 07:18:46;;;;;;;4.53;3.38;;;;;;;;;;5013299;28;20476;-74
2022/06/12 07:21:13;;;;;;;5.25;3.13;;;;;;;;;;5003652;28;20458;-71
2022/06/12 07:23:40;;;;;;;6.25;3.80;;;;;;;;;;5012251;28;20029;-72
2022/06/12 07:26:08;;;;;;;7.30;3.33;;;;;;;;;;5011551;28;20468;-72
2022/06/12 07:28:36;;;;;;;4.63;3.33;;;;;;;;;;5012062;28;20026;-80
2022/06/12 07:31:03;;;;;;;6.63;3.05;;;;;;;;;;4994662;28;20045;-78
2022/06/12 07:33:29;;;;;;;4.60;3.35;;;;;;;;;;5010463;28;20030;-71
2022/06/12 07:35:56;;;;;;;4.88;3.00;;;;;;;;;;5012674;28;20484;-77
2022/06/12 07:38:23;;;;;;;3.80;3.00;;;;;;;;;;5013240;28;20175;-81
2022/06/12 07:41:01;;;;;;;6.35;3.25;;;;;;;;;;5010182;28;20022;-77
2022/06/12 07:43:29;;;;;;;4.18;3.03;;;;;;;;;;5008052;28;20028;-72
2022/06/12 07:45:55;;;;;;;5.53;3.05;;;;;;;;;;5012628;28;20100;-71
2022/06/12 07:48:22;;;;;;;7.57;3.58;;;;;;;;;;5011086;28;20040;-72
2022/06/12 07:50:49;;;;;;;6.30;3.33;;;;;;;;;;5012431;28;20037;-73
2022/06/12 07:53:16;;;;;;;8.45;3.15;;;;;;;;;;5011804;28;20506;-72
2022/06/12 07:55:42;;;;;;;5.53;3.10;;;;;;;;;;5013039;28;20096;-71
2022/06/12 07:58:09;;;;;;;4.70;2.92;;;;;;;;;;5011283;28;20388;-71
2022/06/12 08:00:36;;;;;;;3.55;3.10;;;;;;;;;;5013245;28;20026;-71
2022/06/12 08:03:02;;;;;;;7.18;2.95;;;;;;;;;;5012676;28;20026;-72
2022/06/12 08:05:29;;;;;;;5.10;2.78;;;;;;;;;;5012654;28;20053;-75
2022/06/12 08:07:56;;;;;;;5.05;3.13;;;;;;;;;;5012529;28;20045;-74
2022/06/12 08:10:22;;;;;;;6.20;3.17;;;;;;;;;;5008900;28;20022;-75
2022/06/12 08:12:49;;;;;;;5.10;3.10;;;;;;;;;;4990938;28;20033;-72
2022/06/12 08:15:20;;;;;;;3.63;3.00;;;;;;;;;;4995363;28;20055;-72
2022/06/12 08:17:46;;;;;;;5.15;3.08;;;;;;;;;;5012960;28;20109;-74
2022/06/12 08:20:25;;;;;;;5.80;3.00;;;;;;;;;;5012516;28;20050;-73
2022/06/12 08:23:06;;;;;;;5.88;3.08;;;;;;;;;;5006265;28;20072;-73
2022/06/12 08:25:34;;;;;;;6.22;2.90;;;;;;;;;;5012466;28;20030;-72
2022/06/12 08:28:00;;;;;;;20.35;3.75;;;;;;;;;;5012629;28;20422;-73
2022/06/12 08:30:27;;;;;;;5.10;3.30;;;;;;;;;;5011817;28;20022;-73
2022/06/12 08:32:54;;;;;;;3.42;3.05;;;;;;;;;;4992688;28;20041;-80
2022/06/12 08:35:24;;;;;;;7.28;3.33;;;;;;;;;;4996454;28;20038;-72
2022/06/12 08:37:50;;;;;;;5.43;3.22;;;;;;;;;;5010695;28;20042;-73
2022/06/12 08:40:24;;;;;;;7.88;3.25;;;;;;;;;;5012289;28;20022;-72
2022/06/12 08:42:54;;;;;;;11.23;4.53;;;;;;;;;;5009073;28;20232;-80
2022/06/12 08:45:23;;;;;;;3.92;2.95;;;;;;;;;;5012255;28;20030;-77
2022/06/12 08:47:49;;;;;;;7.07;3.00;;;;;;;;;;5012289;28;20033;-80
2022/06/12 08:50:34;;;;;;;4.85;3.05;;;;;;;;;;4993941;28;20111;-79
2022/06/12 08:53:00;;;;;;;7.43;3.00;;;;;;;;;;4990170;28;20026;-79
2022/06/12 08:55:26;;;;;;;6.20;3.10;;;;;;;;;;5012440;28;20084;-75
2022/06/12 08:58:27;;;;;;;4.53;3.10;;;;;;;;;;5011952;28;20499;-83
2022/06/12 09:00:54;;;;;;;5.57;3.00;;;;;;;;;;4970026;28;20026;-77
2022/06/12 09:03:22;;;;;;;5.35;3.95;;;;;;;;;;4974578;28;20074;-72
2022/06/12 09:05:53;;;;;;;7.10;3.78;;;;;;;;;;4969253;28;20158;-72
2022/06/12 09:08:19;;;;;;;7.20;3.53;;;;;;;;;;4970373;28;20042;-78
2022/06/12 09:10:51;;;;;;;4.57;3.67;;;;;;;;;;4970459;28;20035;-74
2022/06/12 09:13:17;;;;;;;7.57;3.40;;;;;;;;;;4965003;28;20027;-71
2022/06/12 09:15:49;;;;;;;4.63;3.05;;;;;;;;;;4974947;28;20121;-76
2022/06/12 09:18:28;;;;;;;15.25;4.65;;;;;;;;;;4971337;28;20138;-76
2022/06/12 09:21:06;;;;;;;17.77;5.05;;;;;;;;;;4968532;28;20031;-71
2022/06/12 09:23:41;;;;;;;11.80;3.67;;;;;;;;;;4967787;28;20041;-78
2022/06/12 09:26:07;;;;;;;8.70;3.88;;;;;;;;;;4960144;28;20027;-82
2022/06/12 09:29:05;;;;;;;11.65;3.70;;;;;;;;;;4973308;28;20134;-82
2022/06/12 09:31:40;;;;;;;8.07;3.22;;;;;;;;;;4919566;29;20051;-74
2022/06/12 09:34:06;;;;;;;5.20;3.30;;;;;;;;;;4919661;29;20118;-73
2022/06/12 09:36:55;;;;;;;9.50;3.55;;;;;;;;;;4937637;29;20106;-73
2022/06/12 09:39:21;;;;;;;6.88;3.38;;;;;;;;;;4933838;29;20055;-73
2022/06/12 09:41:56;;;;;;;4.60;3.20;;;;;;;;;;4937639;29;20123;-75
2022/06/12 09:44:22;;;;;;;8.98;3.45;;;;;;;;;;4936139;29;20107;-73
2022/06/12 09:46:54;;;;;;;6.80;3.10;;;;;;;;;;4935242;29;20102;-73
2022/06/12 09:49:20;;;;;;;5.50;3.60;;;;;;;;;;4936076;29;20036;-82
2022/06/12 09:51:46;;;;;;;7.00;3.40;;;;;;;;;;4938614;29;20039;-77
2022/06/12 09:54:12;;;;;;;5.88;3.22;;;;;;;;;;4936564;29;20118;-78
2022/06/12 09:56:44;;;;;;;5.13;3.50;;;;;;;;;;4936446;29;20031;-82
2022/06/12 09:59:42;;;;;;;4.30;3.15;;;;;;;;;;4935986;29;20589;-86
2022/06/12 10:02:31;;;;;;;6.00;3.40;;;;;;;;;;4878857;29;20200;-82
2022/06/12 10:05:12;;;;;;;10.52;3.33;;;;;;;;;;4878791;29;20037;-82
2022/06/12 10:07:50;;;;;;;8.82;3.75;;;;;;;;;;4905823;29;20099;-81
2022/06/12 10:10:25;;;;;;;7.57;3.33;;;;;;;;;;4914194;29;20028;-72
2022/06/12 10:12:54;;;;;;;7.95;3.42;;;;;;;;;;4913242;29;20095;-83
2022/06/12 10:15:23;;;;;;;5.05;3.40;;;;;;;;;;4913124;29;20033;-78
2022/06/12 10:18:06;;;;;;;8.77;3.28;;;;;;;;;;4918117;29;20574;-78
2022/06/12 10:20:34;;;;;;;6.35;4.05;;;;;;;;;;4908948;29;20035;-76
2022/06/12 10:23:01;;;;;;;5.65;3.42;;;;;;;;;;4913888;29;20040;-78
2022/06/12 10:25:35;;;;;;;10.23;3.85;;;;;;;;;;4913574;29;20075;-75
2022/06/12 10:28:04;;;;;;;8.07;3.67;;;;;;;;;;4913618;29;20040;-76
2022/06/12 10:30:33;;;;;;;7.05;3.72;;;;;;;;;;4913773;29;20040;-86
2022/06/12 10:33:08;;;;;;;7.40;3.63;;;;;;;;;;4899274;29;20067;-88
2022/06/12 10:35:45;;;;;;;6.38;3.80;;;;;;;;;;4915301;29;20024;-74
2022/06/12 10:38:11;;;;;;;13.80;4.43;;;;;;;;;;4979431;28;20132;-79
2022/06/12 10:40:37;;;;;;;6.78;3.20;;;;;;;;;;4992641;28;20127;-84
2022/06/12 10:43:05;;;;;;;9.45;3.58;;;;;;;;;;4995233;28;20515;-78
2022/06/12 10:45:33;;;;;;;23.92;4.93;;;;;;;;;;5011666;28;20034;-79
2022/06/12 10:48:19;;;;;;;7.70;3.38;;;;;;;;;;5012585;28;20036;-87
2022/06/12 10:50:50;;;;;;;8.23;3.63;;;;;;;;;;5014014;28;20038;-91
2022/06/12 10:53:18;;;;;;;9.98;3.20;;;;;;;;;;5006805;28;20124;-87
2022/06/12 10:55:44;;;;;;;5.60;3.53;;;;;;;;;;5010185;28;20023;-74
2022/06/12 10:58:39;;;;;;;5.05;3.30;;;;;;;;;;5013279;28;20089;-74
2022/06/12 11:01:12;;;;;;;4.18;3.40;;;;;;;;;;4972401;28;20421;-75
2022/06/12 11:03:51;;;;;;;8.97;3.60;;;;;;;;;;4970403;28;20062;-77
2022/06/12 11:06:24;;;;;;;7.38;3.25;;;;;;;;;;4975245;28;20681;-74
2022/06/12 11:08:59;;;;;;;5.13;3.30;;;;;;;;;;4975097;28;20452;-73
2022/06/12 11:11:45;;;;;;;8.13;3.10;;;;;;;;;;4968806;28;20443;-78
2022/06/12 11:14:19;;;;;;;5.53;3.50;;;;;;;;;;4950109;28;20039;-87
2022/06/12 11:16:50;;;;;;;6.78;3.33;;;;;;;;;;4969717;28;20480;-81
2022/06/12 11:19:29;;;;;;;5.78;3.30;;;;;;;;;;4970331;28;20058;-82
2022/06/12 11:21:58;;;;;;;4.38;3.20;;;;;;;;;;4970262;28;20519;-77
2022/06/12 11:24:24;;;;;;;4.78;3.00;;;;;;;;;;4969417;28;20035;-76
2022/06/12 11:27:10;;;;;;;6.97;3.17;;;;;;;;;;4969841;28;20423;-79
2022/06/12 11:29:49;;;;;;;10.20;3.15;;;;;;;;;;4969003;28;20030;-77
2022/06/12 11:32:15;;;;;;;4.35;3.20;;;;;;;;;;4970371;28;20227;-79
2022/06/12 11:35:06;;;;;;;7.60;3.30;;;;;;;;;;4970901;28;20030;-79
2022/06/12 11:37:41;;;;;;;4.63;3.55;;;;;;;;;;4995531;28;20034;-79
2022/06/12 11:40:21;;;;;;;4.78;3.45;;;;;;;;;;5011592;28;20499;-74
2022/06/12 11:42:51;;;;;;;5.88;3.30;;;;;;;;;;4992620;28;20026;-76
2022/06/12 11:45:36;;;;;;;8.60;3.70;;;;;;;;;;5008378;28;20506;-76
2022/06/12 11:48:19;;;;;;;6.75;3.75;;;;;;;;;;5014530;28;20088;-77
2022/06/12 11:50:45;;;;;;;8.07;3.58;;;;;;;;;;5009044;28;20030;-82
2022/06/12 11:53:11;;;;;;;5.35;3.55;;;;;;;;;;4991826;28;20176;-83
2022/06/12 11:55:41;;;;;;;5.40;3.53;;;;;;;;;;4994697;28;20068;-79
2022/06/12 11:58:14;;;;;;;6.93;3.88;;;;;;;;;;4994975;28;20034;-79
2022/06/12 12:00:47;;;;;;;6.97;3.37;;;;;;;;;;5005496;28;20061;-73
2022/06/12 12:03:32;;;;;;;7.22;3.63;;;;;;;;;;5007084;28;20028;-75
2022/06/12 12:06:21;;;;;;;6.03;3.58;;;;;;;;;;5011265;28;20044;-74
2022/06/12 12:08:50;;;;;;;5.63;3.35;;;;;;;;;;5007686;28;20053;-73
2022/06/12 12:11:20;;;;;;;6.85;3.60;;;;;;;;;;5009049;28;20033;-74
2022/06/12 12:13:48;;;;;;;6.00;3.38;;;;;;;;;;5011069;28;20030;-76
2022/06/12 12:16:23;;;;;;;4.60;3.58;;;;;;;;;;5007507;28;20026;-74
2022/06/12 12:19:02;;;;;;;6.35;3.40;;;;;;;;;;5010317;28;20072;-75
2022/06/12 12:21:28;;;;;;;5.57;3.33;;;;;;;;;;5009337;28;20050;-83
2022/06/12 12:23:55;;;;;;;7.45;3.97;;;;;;;;;;5007508;28;20565;-77
2022/06/12 12:26:26;;;;;;;5.60;3.63;;;;;;;;;;5011184;28;20114;-79
2022/06/12 12:28:54;;;;;;;4.13;3.38;;;;;;;;;;5010183;28;20026;-75
2022/06/12 12:31:21;;;;;;;6.20;3.90;;;;;;;;;;4993180;28;20033;-77
2022/06/12 12:33:49;;;;;;;6.72;3.90;;;;;;;;;;5011700;28;20029;-78
2022/06/12 12:41:50;;;;;;;5.85;3.40;;;;;;;;;;4995524;28;20157;-80
2022/06/12 12:44:28;;;;;;;8.73;3.70;;;;;;;;;;5006185;28;20029;-78
2022/06/12 12:46:54;;;;;;;6.07;3.75;;;;;;;;;;5005991;28;20104;-75
2022/06/12 12:49:23;;;;;;;6.97;3.53;;;;;;;;;;5007091;28;20033;-77
2022/06/12 12:51:50;;;;;;;6.22;3.67;;;;;;;;;;5003451;28;20065;-77
2022/06/12 12:54:18;;;;;;;5.57;3.20;;;;;;;;;;5009503;28;20032;-74
2022/06/12 12:56:52;;;;;;;8.40;3.72;;;;;;;;;;4993373;28;20113;-79
2022/06/12 12:59:19;;;;;;;5.03;3.85;;;;;;;;;;5012199;28;20030;-75
2022/06/12 13:01:47;;;;;;;6.00;3.75;;;;;;;;;;5014638;28;20034;-77
2022/06/12 13:04:24;;;;;;;9.38;3.97;;;;;;;;;;5016596;28;20057;-75
2022/06/12 13:06:50;;;;;;;6.70;3.53;;;;;;;;;;5015411;28;20111;-76
2022/06/12 13:09:34;;;;;;;7.30;3.63;;;;;;;;;;5020044;28;20034;-74
2022/06/12 13:12:20;;;;;;;7.80;3.97;;;;;;;;;;5013086;28;20065;-74
2022/06/12 13:14:55;;;;;;;6.25;3.70;;;;;;;;;;5014675;28;20022;-73
2022/06/12 13:17:34;;;;;;;5.55;3.42;;;;;;;;;;5015593;28;20041;-75
2022/06/12 13:20:03;;;;;;;7.35;3.78;;;;;;;;;;5013498;28;20395;-78
2022/06/12 13:22:48;;;;;;;5.32;3.80;;;;;;;;;;5014733;28;20028;-75
2022/06/12 13:25:26;;;;;;;9.35;3.40;;;;;;;;;;5015719;28;20141;-77
2022/06/12 13:27:56;;;;;;;8.45;4.00;;;;;;;;;;5013983;28;20113;-75
2022/06/12 13:30:26;;;;;;;7.50;3.90;;;;;;;;;;5016071;28;20036;-75
2022/06/12 13:32:53;;;;;;;6.07;3.47;;;;;;;;;;5013101;28;20049;-78
2022/06/12 13:35:30;;;;;;;8.38;3.60;;;;;;;;;;5015955;28;20026;-74
2022/06/12 13:38:05;;;;;;;5.55;3.40;;;;;;;;;;5015335;28;20543;-77
2022/06/12 13:40:31;;;;;;;7.20;3.40;;;;;;;;;;4989484;28;20554;-79
2022/06/12 13:43:23;;;;;;;5.70;3.35;;;;;;;;;;4999725;28;20030;-77
2022/06/12 13:46:00;;;;;;;6.20;3.50;;;;;;;;;;5010096;28;20033;-78
2022/06/12 13:48:27;;;;;;;5.15;3.10;;;;;;;;;;5012831;28;20088;-77
2022/06/12 13:50:57;;;;;;;5.45;3.10;;;;;;;;;;5015950;28;20025;-77
2022/06/12 13:53:23;;;;;;;6.00;3.30;;;;;;;;;;5015632;28;20026;-77
2022/06/12 13:55:49;;;;;;;7.72;3.33;;;;;;;;;;5015213;28;20077;-77
2022/06/12 13:58:27;;;;;;;7.53;3.60;;;;;;;;;;4997672;28;20026;-77
2022/06/12 14:01:00;;;;;;;4.30;3.30;;;;;;;;;;5016809;28;20034;-78
2022/06/12 14:03:35;;;;;;;8.43;3.35;;;;;;;;;;5017273;28;20061;-78
2022/06/12 14:06:03;;;;;;;5.97;4.00;;;;;;;;;;5014731;28;20101;-76
2022/06/12 14:08:30;;;;;;;8.43;3.60;;;;;;;;;;5016629;28;20065;-77
2022/06/12 14:10:57;;;;;;;6.55;3.80;;;;;;;;;;5015313;28;20034;-76
2022/06/12 14:13:35;;;;;;;7.00;3.40;;;;;;;;;;5014596;28;20056;-78
2022/06/12 14:16:06;;;;;;;6.47;4.07;;;;;;;;;;5013172;28;20088;-78
2022/06/12 14:18:32;;;;;;;4.80;3.42;;;;;;;;;;4996870;28;20029;-77
2022/06/12 14:21:00;;;;;;;7.40;3.50;;;;;;;;;;5015118;28;20057;-78
2022/06/12 14:23:28;;;;;;;5.22;3.70;;;;;;;;;;5013408;28;20492;-77
2022/06/12 14:26:15;;;;;;;12.43;4.10;;;;;;;;;;5002234;28;20479;-78
2022/06/12 14:28:41;;;;;;;7.68;3.78;;;;;;;;;;4994482;28;20094;-77
2022/06/12 14:31:16;;;;;;;8.65;3.72;;;;;;;;;;5013730;28;20049;-75
2022/06/12 14:34:00;;;;;;;4.53;3.38;;;;;;;;;;5010805;28;20102;-76
2022/06/12 14:36:34;;;;;;;6.80;3.45;;;;;;;;;;5013201;28;20121;-77
2022/06/12 14:39:09;;;;;;;7.00;3.47;;;;;;;;;;5013798;28;20053;-79
2022/06/12 14:41:35;;;;;;;6.72;3.80;;;;;;;;;;4997271;28;20033;-78
2022/06/12 14:44:01;;;;;;;7.95;4.60;;;;;;;;;;4996672;28;20038;-78
2022/06/12 14:46:28;;;;;;;18.27;13.52;;;;;;;;;;5014659;28;20063;-75
2022/06/12 14:48:55;;;;;;;9.35;4.13;;;;;;;;;;5014297;28;20030;-76
2022/06/12 14:51:21;;;;;;;11.20;6.10;;;;;;;;;;5013967;28;20121;-76
2022/06/12 14:53:48;;;;;;;9.25;3.88;;;;;;;;;;5014324;28;20050;-77
2022/06/12 14:56:25;;;;;;;8.00;5.90;;;;;;;;;;5017920;28;20388;-78
2022/06/12 14:58:52;;;;;;;5.95;4.00;;;;;;;;;;5014270;28;20403;-77
2022/06/12 15:01:21;;;;;;;6.20;3.97;;;;;;;;;;5013896;28;20048;-77
2022/06/12 15:03:47;;;;;;;8.35;4.28;;;;;;;;;;5015027;28;20041;-76
2022/06/12 15:06:14;;;;;;;5.32;3.58;;;;;;;;;;5011457;28;20042;-78
2022/06/12 15:08:41;;;;;;;7.38;3.50;;;;;;;;;;5011966;28;20101;-76
2022/06/12 15:11:25;;;;;;;5.40;3.80;;;;;;;;;;5013011;28;20026;-77
2022/06/12 15:13:52;;;;;;;4.55;3.60;;;;;;;;;;5009440;28;20034;-77
2022/06/12 15:16:19;;;;;;;6.55;3.90;;;;;;;;;;5014374;28;20419;-75
2022/06/12 15:18:45;;;;;;;6.75;3.80;;;;;;;;;;5012665;28;20552;-77
2022/06/12 15:21:15;;;;;;;7.25;3.95;;;;;;;;;;5012957;28;20057;-77
2022/06/12 15:23:41;;;;;;;8.43;3.95;;;;;;;;;;5012660;28;20025;-77